createdAt,value
2022-12-26T00:00:23.359Z,2.20
2022-12-26T00:02:50.160Z,1.85
2022-12-26T00:05:16.916Z,1.90
2022-12-26T00:07:43.684Z,2.15
2022-12-26T00:10:10.393Z,1.60
2022-12-26T00:12:37.069Z,1.77
2022-12-26T00:15:04.254Z,2.05
2022-12-26T00:17:30.872Z,1.92
2022-12-26T00:19:57.465Z,1.58
2022-12-26T00:22:24.071Z,2.30
2022-12-26T00:24:50.745Z,1.70
2022-12-26T00:27:17.342Z,1.90
2022-12-26T00:29:43.936Z,1.98
2022-12-26T00:32:10.523Z,1.90
2022-12-26T00:34:37.144Z,2.03
2022-12-26T00:37:03.760Z,1.90
2022-12-26T00:39:30.407Z,2.33
2022-12-26T00:41:57.053Z,2.03
2022-12-26T00:44:23.619Z,1.90
2022-12-26T00:46:50.271Z,2.20
2022-12-26T00:49:16.892Z,2.00
2022-12-26T00:51:43.488Z,2.38
2022-12-26T00:54:10.115Z,1.98
2022-12-26T00:56:36.701Z,1.77
2022-12-26T00:59:03.325Z,2.10
2022-12-26T01:01:31.224Z,2.10
2022-12-26T01:03:58.375Z,2.00
2022-12-26T01:06:25.536Z,1.73
2022-12-26T01:08:53.147Z,1.80
2022-12-26T01:11:38.455Z,1.88
2022-12-26T01:14:06.564Z,1.70
2022-12-26T01:16:33.257Z,2.00
2022-12-26T01:18:59.979Z,1.80
2022-12-26T01:21:26.568Z,1.60
2022-12-26T01:23:53.172Z,1.80
2022-12-26T01:26:20.381Z,2.00
2022-12-26T01:28:51.297Z,1.70
2022-12-26T01:31:18.618Z,1.80
2022-12-26T01:33:45.965Z,1.80
2022-12-26T01:36:12.815Z,1.83
2022-12-26T01:38:39.416Z,1.95
2022-12-26T01:41:20.506Z,1.90
2022-12-26T01:43:47.447Z,1.63
2022-12-26T01:46:16.044Z,2.17
2022-12-26T01:48:42.758Z,1.65
2022-12-26T01:51:09.701Z,1.60
2022-12-26T01:54:40.248Z,1.73
2022-12-26T01:56:46.799Z,1.80
2022-12-26T01:59:21.844Z,1.90
2022-12-26T02:01:52.004Z,1.80
2022-12-26T02:04:41.758Z,1.77
2022-12-26T02:07:08.816Z,1.92
2022-12-26T02:09:37.095Z,1.80
2022-12-26T02:12:35.551Z,1.77
2022-12-26T02:15:00.694Z,2.00
2022-12-26T02:17:27.389Z,1.80
2022-12-26T02:20:10.297Z,2.22
2022-12-26T02:22:58.364Z,1.92
2022-12-26T02:25:49.644Z,1.65
2022-12-26T02:28:33.145Z,1.77
2022-12-26T02:33:34.965Z,1.52
2022-12-26T02:36:22.143Z,1.85
2022-12-26T02:39:44.615Z,1.90
2022-12-26T02:42:29.400Z,1.88
2022-12-26T02:48:18.903Z,1.83
2022-12-26T02:51:32.807Z,2.15
2022-12-26T02:54:36.892Z,1.92
2022-12-26T02:57:25.022Z,1.83
2022-12-26T03:00:37.608Z,1.98
2022-12-26T03:03:40.157Z,1.70
2022-12-26T03:06:32.053Z,1.75
2022-12-26T03:09:20.328Z,1.58
2022-12-26T03:12:09.905Z,2.00
2022-12-26T03:14:42.812Z,2.00
2022-12-26T03:17:21.323Z,1.80
2022-12-26T03:19:59.800Z,1.85
2022-12-26T03:22:41.300Z,1.80
2022-12-26T03:25:40.327Z,2.30
2022-12-26T03:28:07.042Z,1.73
2022-12-26T03:30:49.557Z,1.90
2022-12-26T03:33:46.333Z,1.50
2022-12-26T03:36:20.704Z,1.80
2022-12-26T03:38:56.472Z,1.40
2022-12-26T03:41:59.534Z,1.52
2022-12-26T03:44:53.932Z,1.50
2022-12-26T03:47:48.152Z,1.92
2022-12-26T03:50:56.526Z,1.30
2022-12-26T03:53:48.454Z,1.63
2022-12-26T03:56:44.167Z,1.63
2022-12-26T03:59:36.166Z,1.80
2022-12-26T04:02:26.052Z,1.80
2022-12-26T04:05:15.482Z,1.35
2022-12-26T04:08:12.197Z,1.80
2022-12-26T04:11:06.464Z,1.80
2022-12-26T04:14:03.896Z,1.52
2022-12-26T04:17:01.303Z,1.52
2022-12-26T04:19:27.975Z,1.88
2022-12-26T04:22:22.010Z,1.77
2022-12-26T04:25:49.418Z,2.42
2022-12-26T04:28:35.869Z,2.17
2022-12-26T04:31:36.408Z,2.42
2022-12-26T04:34:31.838Z,2.00
2022-12-26T04:37:21.744Z,2.15
2022-12-26T04:40:12.301Z,1.90
2022-12-26T04:43:00.181Z,2.28
2022-12-26T04:45:27.883Z,1.73
2022-12-26T04:48:13.025Z,2.22
2022-12-26T04:50:53.036Z,2.22
2022-12-26T04:53:20.328Z,2.30
2022-12-26T04:55:46.926Z,2.10
2022-12-26T04:58:13.647Z,1.98
2022-12-26T05:00:40.412Z,2.00
2022-12-26T05:03:31.377Z,1.90
2022-12-26T05:06:16.944Z,2.22
2022-12-26T05:09:04.735Z,1.92
2022-12-26T05:11:33.800Z,2.10
2022-12-26T05:14:01.147Z,1.90
2022-12-26T05:16:47.546Z,2.20
2022-12-26T05:19:35.045Z,1.90
2022-12-26T05:22:22.919Z,1.95
2022-12-26T05:25:08.672Z,1.55
2022-12-26T05:27:58.984Z,1.58
2022-12-26T05:30:26.049Z,1.58
2022-12-26T05:33:11.021Z,1.52
2022-12-26T05:35:38.459Z,1.80
2022-12-26T05:38:05.593Z,1.80
2022-12-26T05:40:32.453Z,1.90
2022-12-26T05:42:59.053Z,2.33
2022-12-26T05:45:25.699Z,1.98
2022-12-26T05:47:58.811Z,2.00
2022-12-26T05:52:52.071Z,2.33
2022-12-26T05:55:19.066Z,1.90
2022-12-26T05:57:45.636Z,1.95
2022-12-26T06:00:12.926Z,1.80
2022-12-26T06:02:39.627Z,1.73
2022-12-26T06:05:06.553Z,1.80
2022-12-26T06:07:34.336Z,1.63
2022-12-26T06:10:00.926Z,1.80
2022-12-26T06:12:27.577Z,1.90
2022-12-26T06:14:54.971Z,1.90
2022-12-26T06:17:21.586Z,1.98
2022-12-26T06:19:48.189Z,1.70
2022-12-26T06:22:14.799Z,2.13
2022-12-26T06:24:41.436Z,2.00
2022-12-26T06:27:08.016Z,1.83
2022-12-26T06:29:34.689Z,2.70
2022-12-26T06:32:01.352Z,2.35
2022-12-26T06:34:28.084Z,2.50
2022-12-26T06:36:57.971Z,2.10
2022-12-26T06:39:24.810Z,2.30
2022-12-26T06:41:51.430Z,1.48
2022-12-26T06:44:18.838Z,2.08
2022-12-26T06:46:45.825Z,1.83
2022-12-26T06:49:12.626Z,1.67
2022-12-26T06:51:39.276Z,1.70
2022-12-26T06:54:05.922Z,1.65
2022-12-26T06:56:33.384Z,1.80
2022-12-26T06:59:02.161Z,1.90
2022-12-26T07:01:30.888Z,1.55
2022-12-26T07:03:58.176Z,1.90
2022-12-26T07:06:27.539Z,2.10
2022-12-26T07:08:58.053Z,1.80
2022-12-26T07:11:28.778Z,1.90
2022-12-26T07:13:56.005Z,2.15
2022-12-26T07:16:23.520Z,1.92
2022-12-26T07:18:53.296Z,2.38
2022-12-26T07:21:20.258Z,2.08
2022-12-26T07:23:47.046Z,2.15
2022-12-26T07:26:13.824Z,2.50
2022-12-26T07:28:40.436Z,2.10
2022-12-26T07:31:07.188Z,2.17
2022-12-26T07:33:34.563Z,2.10
2022-12-26T07:36:05.488Z,2.00
2022-12-26T07:38:35.207Z,2.58
2022-12-26T07:41:24.808Z,2.30
2022-12-26T07:43:51.640Z,2.05
2022-12-26T07:46:18.717Z,2.45
2022-12-26T07:48:45.347Z,2.50
2022-12-26T07:51:12.203Z,2.80
2022-12-26T07:53:38.953Z,2.83
2022-12-26T07:56:06.103Z,2.90
2022-12-26T07:58:32.791Z,3.10
2022-12-26T08:01:04.184Z,3.35
2022-12-26T08:03:31.012Z,4.28
2022-12-26T08:05:57.750Z,3.85
2022-12-26T08:08:24.411Z,3.70
2022-12-26T08:11:02.592Z,3.10
2022-12-26T08:13:30.248Z,3.30
2022-12-26T08:15:57.448Z,4.88
2022-12-26T08:18:25.555Z,3.17
2022-12-26T08:20:52.564Z,5.07
2022-12-26T08:23:19.388Z,5.07
2022-12-26T08:25:46.047Z,4.03
2022-12-26T08:28:12.636Z,4.47
2022-12-26T08:30:41.400Z,5.45
2022-12-26T08:33:09.591Z,4.18
2022-12-26T08:35:37.649Z,4.85
2022-12-26T08:38:05.220Z,4.68
2022-12-26T08:40:42.650Z,4.70
2022-12-26T08:43:32.041Z,3.80
2022-12-26T08:46:17.748Z,3.47
2022-12-26T08:48:45.331Z,3.05
2022-12-26T08:51:17.660Z,3.13
2022-12-26T08:53:45.994Z,3.57
2022-12-26T08:56:17.135Z,3.70
2022-12-26T08:58:44.514Z,3.63
2022-12-26T09:01:30.577Z,3.47
2022-12-26T09:04:00.427Z,3.92
2022-12-26T09:06:28.187Z,3.90
2022-12-26T09:08:54.921Z,6.35
2022-12-26T09:11:26.951Z,3.65
2022-12-26T09:13:54.409Z,3.35
2022-12-26T09:16:24.464Z,2.95
2022-12-26T09:18:57.008Z,2.63
2022-12-26T09:21:24.252Z,2.50
2022-12-26T09:23:51.100Z,3.45
2022-12-26T09:26:20.123Z,2.85
2022-12-26T09:28:47.688Z,2.38
2022-12-26T09:31:21.421Z,2.60
2022-12-26T09:33:48.308Z,3.38
2022-12-26T09:36:21.235Z,2.95
2022-12-26T09:38:48.641Z,3.05
2022-12-26T09:41:33.674Z,3.10
2022-12-26T09:44:09.072Z,3.67
2022-12-26T09:46:41.767Z,2.85
2022-12-26T09:49:20.220Z,2.10
2022-12-26T09:51:51.945Z,2.92
2022-12-26T09:54:51.229Z,3.90
2022-12-26T09:57:23.799Z,4.85
2022-12-26T09:59:56.771Z,4.85
2022-12-26T10:02:25.379Z,3.63
2022-12-26T10:04:53.913Z,3.65
2022-12-26T10:07:26.748Z,3.00
2022-12-26T10:10:00.442Z,2.80
2022-12-26T10:12:49.868Z,2.33
2022-12-26T10:15:31.820Z,2.17
2022-12-26T10:18:16.507Z,3.50
2022-12-26T10:21:07.817Z,2.47
2022-12-26T10:23:38.364Z,2.40
2022-12-26T10:26:20.228Z,2.63
2022-12-26T10:28:59.463Z,2.40
2022-12-26T10:31:49.340Z,2.13
2022-12-26T10:34:21.279Z,2.30
2022-12-26T10:36:57.643Z,1.88
2022-12-26T10:39:27.328Z,2.45
2022-12-26T10:41:58.595Z,3.38
2022-12-26T10:44:27.892Z,3.45
2022-12-26T10:47:18.751Z,1.77
2022-12-26T10:49:47.218Z,2.40
2022-12-26T10:52:16.801Z,1.80
2022-12-26T10:54:47.924Z,1.73
2022-12-26T10:57:14.597Z,1.88
2022-12-26T10:59:54.164Z,1.85
2022-12-26T11:02:30.422Z,1.77
2022-12-26T11:05:40.198Z,1.60
2022-12-26T11:08:43.180Z,1.73
2022-12-26T11:11:19.910Z,1.75
2022-12-26T11:13:51.660Z,1.60
2022-12-26T11:16:29.343Z,1.45
2022-12-26T11:18:56.525Z,1.75
2022-12-26T11:21:29.023Z,1.55
2022-12-26T11:24:16.607Z,1.52
2022-12-26T11:26:43.353Z,1.50
2022-12-26T11:29:32.052Z,1.80
2022-12-26T11:32:03.397Z,1.90
2022-12-26T11:34:32.657Z,1.70
2022-12-26T11:36:59.404Z,1.60
2022-12-26T11:39:33.636Z,1.20
2022-12-26T11:42:00.622Z,1.15
2022-12-26T11:44:30.272Z,1.40
2022-12-26T11:46:56.911Z,1.30
2022-12-26T11:49:34.602Z,1.25
2022-12-26T11:52:22.739Z,1.20
2022-12-26T11:54:50.899Z,1.50
2022-12-26T11:57:32.274Z,1.50
2022-12-26T12:00:19.435Z,1.58
2022-12-26T12:02:46.603Z,1.10
2022-12-26T12:05:23.962Z,1.38
2022-12-26T12:08:05.391Z,1.30
2022-12-26T12:11:00.100Z,1.30
2022-12-26T12:14:05.143Z,1.10
2022-12-26T12:16:43.874Z,1.40
2022-12-26T12:19:34.393Z,1.17
2022-12-26T12:22:25.812Z,1.25
2022-12-26T12:25:36.419Z,1.27
2022-12-26T12:28:26.902Z,1.30
2022-12-26T12:31:15.432Z,1.25
2022-12-26T12:33:44.643Z,1.45
2022-12-26T12:36:21.410Z,1.50
2022-12-26T12:39:03.062Z,1.70
2022-12-26T12:41:55.510Z,1.25
2022-12-26T12:44:38.888Z,1.52
2022-12-26T12:47:17.738Z,1.40
2022-12-26T12:49:52.964Z,1.48
2022-12-26T12:52:46.577Z,1.52
2022-12-26T12:55:27.688Z,1.27
2022-12-26T12:58:00.366Z,2.30
2022-12-26T13:00:35.568Z,2.67
2022-12-26T13:03:42.021Z,3.67
2022-12-26T13:06:16.683Z,2.00
2022-12-26T13:08:50.364Z,2.25
2022-12-26T13:11:26.112Z,1.92
2022-12-26T13:13:59.207Z,1.80
2022-12-26T13:19:05.714Z,1.70
2022-12-26T13:21:36.983Z,1.67
2022-12-26T13:24:25.191Z,1.50
2022-12-26T13:26:54.858Z,1.77
2022-12-26T13:29:33.341Z,1.50
2022-12-26T13:32:01.344Z,1.40
2022-12-26T13:34:28.198Z,1.30
2022-12-26T13:36:56.716Z,1.30
2022-12-26T13:39:23.296Z,1.60
2022-12-26T13:42:13.441Z,1.52
2022-12-26T13:44:40.645Z,1.40
2022-12-26T13:47:35.260Z,1.42
2022-12-26T13:50:39.143Z,1.38
2022-12-26T13:56:00.996Z,1.50
2022-12-26T13:58:49.389Z,1.20
2022-12-26T14:01:55.972Z,1.40
2022-12-26T14:04:46.665Z,1.17
2022-12-26T14:07:41.332Z,1.23
2022-12-26T14:10:32.712Z,1.23
2022-12-26T14:13:44.468Z,2.00
2022-12-26T14:16:17.124Z,1.73
2022-12-26T14:18:43.688Z,1.70
2022-12-26T14:21:28.715Z,1.90
2022-12-26T14:24:04.044Z,1.77
2022-12-26T14:26:55.792Z,1.83
2022-12-26T14:29:40.742Z,1.50
2022-12-26T14:32:19.401Z,1.73
2022-12-26T14:35:01.604Z,2.10
2022-12-26T14:37:55.240Z,1.77
2022-12-26T14:40:34.300Z,1.70
2022-12-26T14:43:13.951Z,1.70
2022-12-26T14:45:42.540Z,2.20
2022-12-26T14:48:15.428Z,1.70
2022-12-26T14:50:46.608Z,1.98
2022-12-26T14:53:27.198Z,1.95
2022-12-26T14:56:07.902Z,1.80
2022-12-26T14:58:48.014Z,1.95
2022-12-26T15:01:18.116Z,1.80
2022-12-26T15:04:09.766Z,1.80
2022-12-26T15:06:57.752Z,1.95
2022-12-26T15:09:39.364Z,1.77
2022-12-26T15:12:39.952Z,2.00
2022-12-26T15:15:32.312Z,1.83
2022-12-26T15:18:10.747Z,1.92
2022-12-26T15:20:59.041Z,1.92
2022-12-26T15:23:53.280Z,2.13
2022-12-26T15:26:44.712Z,1.95
2022-12-26T15:29:37.914Z,1.67
2022-12-26T15:32:24.510Z,1.98
2022-12-26T15:34:56.979Z,1.80
2022-12-26T15:37:54.534Z,1.90
2022-12-26T15:40:24.808Z,1.63
2022-12-26T15:43:06.304Z,1.67
2022-12-26T15:46:00.476Z,1.75
2022-12-26T15:48:57.167Z,1.60
2022-12-26T15:52:01.539Z,1.73
2022-12-26T15:54:44.852Z,1.63
2022-12-26T15:57:38.711Z,1.40
2022-12-26T16:00:15.014Z,1.77
2022-12-26T16:02:49.983Z,1.50
2022-12-26T16:05:51.441Z,1.50
2022-12-26T16:08:53.735Z,1.70
2022-12-26T16:11:26.353Z,1.52
2022-12-26T16:14:04.660Z,1.60
2022-12-26T16:16:37.444Z,1.35
2022-12-26T16:19:16.325Z,1.33
2022-12-26T16:22:05.333Z,1.30
2022-12-26T16:24:36.048Z,1.17
2022-12-26T16:27:06.288Z,1.25
2022-12-26T16:29:33.328Z,1.40
2022-12-26T16:32:07.540Z,1.02
2022-12-26T16:34:36.395Z,0.90
2022-12-26T16:37:03.388Z,1.20
2022-12-26T16:39:29.997Z,1.30
2022-12-26T16:42:01.697Z,1.00
2022-12-26T16:44:31.029Z,1.05
2022-12-26T16:47:02.031Z,1.20
2022-12-26T16:49:30.947Z,1.13
2022-12-26T16:51:58.259Z,1.17
2022-12-26T16:54:30.124Z,1.25
2022-12-26T16:57:06.787Z,1.05
2022-12-26T16:59:57.186Z,1.30
2022-12-26T17:02:28.012Z,1.23
2022-12-26T17:05:01.021Z,1.42
2022-12-26T17:07:28.275Z,1.70
2022-12-26T17:09:58.927Z,1.70
2022-12-26T17:12:34.054Z,1.80
2022-12-26T17:15:02.423Z,1.70
2022-12-26T17:17:37.468Z,2.40
2022-12-26T17:20:33.683Z,1.70
2022-12-26T17:23:00.504Z,1.65
2022-12-26T17:25:33.492Z,1.92
2022-12-26T17:28:09.594Z,2.28
2022-12-26T17:30:43.738Z,1.50
2022-12-26T17:33:26.073Z,1.80
2022-12-26T17:38:45.825Z,1.77
2022-12-26T17:41:15.605Z,1.73
2022-12-26T17:43:43.292Z,1.10
2022-12-26T17:46:13.812Z,1.17
2022-12-26T17:48:41.980Z,1.30
2022-12-26T17:51:14.535Z,1.30
2022-12-26T17:53:42.556Z,1.40
2022-12-26T17:56:22.656Z,1.45
2022-12-26T17:58:50.429Z,1.10
2022-12-26T18:01:21.466Z,1.20
2022-12-26T18:03:49.132Z,1.02
2022-12-26T18:06:16.696Z,0.82
2022-12-26T18:08:44.878Z,0.90
2022-12-26T18:11:13.725Z,0.60
2022-12-26T18:13:41.688Z,0.90
2022-12-26T18:16:14.385Z,0.70
2022-12-26T18:18:43.797Z,0.95
2022-12-26T18:21:13.375Z,0.80
2022-12-26T18:23:40.526Z,0.70
2022-12-26T18:26:14.508Z,0.90
2022-12-26T18:28:41.101Z,0.70
2022-12-26T18:31:12.850Z,0.60
2022-12-26T18:33:39.473Z,1.30
2022-12-26T18:36:07.914Z,1.30
2022-12-26T18:38:34.602Z,1.20
2022-12-26T18:41:02.433Z,0.90
2022-12-26T18:43:29.052Z,1.60
2022-12-26T18:45:55.957Z,1.00
2022-12-26T18:48:22.629Z,1.63
2022-12-26T18:50:49.269Z,1.25
2022-12-26T18:53:16.712Z,1.45
2022-12-26T18:55:43.328Z,1.27
2022-12-26T18:58:12.441Z,2.20
2022-12-26T19:00:39.102Z,1.05
2022-12-26T19:03:05.747Z,0.98
2022-12-26T19:05:34.220Z,1.33
2022-12-26T19:08:02.355Z,0.68
2022-12-26T19:10:34.110Z,0.68
2022-12-26T19:13:05.956Z,0.50
2022-12-26T19:15:34.481Z,0.50
2022-12-26T19:18:01.652Z,0.50
2022-12-26T19:20:28.542Z,0.80
2022-12-26T19:22:55.931Z,0.70
2022-12-26T19:25:24.527Z,0.70
2022-12-26T19:27:51.795Z,0.80
2022-12-26T19:30:19.619Z,0.70
2022-12-26T19:32:46.287Z,0.52
2022-12-26T19:35:14.454Z,0.60
2022-12-26T19:37:41.609Z,0.50
2022-12-26T19:40:09.777Z,0.70
2022-12-26T19:42:37.467Z,0.90
2022-12-26T19:45:05.503Z,0.60
2022-12-26T19:47:32.750Z,0.88
2022-12-26T19:49:59.341Z,0.82
2022-12-26T19:52:26.020Z,0.68
2022-12-26T19:54:52.713Z,0.85
2022-12-26T19:57:19.493Z,0.80
2022-12-26T19:59:46.116Z,0.90
2022-12-26T20:02:13.825Z,0.55
2022-12-26T20:04:40.695Z,0.68
2022-12-26T20:07:07.318Z,0.47
2022-12-26T20:09:33.961Z,0.57
2022-12-26T20:12:01.692Z,0.70
2022-12-26T20:14:28.837Z,0.50
2022-12-26T20:17:06.797Z,0.93
2022-12-26T20:19:34.800Z,0.60
2022-12-26T20:22:01.635Z,0.40
2022-12-26T20:24:28.251Z,0.60
2022-12-26T20:26:54.943Z,0.40
2022-12-26T20:29:21.807Z,0.77
2022-12-26T20:31:49.324Z,0.60
2022-12-26T20:34:16.219Z,0.40
2022-12-26T20:36:43.158Z,0.68
2022-12-26T20:39:15.693Z,0.60
2022-12-26T20:41:42.354Z,0.68
2022-12-26T20:44:11.828Z,0.50
2022-12-26T20:46:40.480Z,0.70
2022-12-26T20:49:07.070Z,0.50
2022-12-26T20:51:37.861Z,0.50
2022-12-26T20:54:07.118Z,0.63
2022-12-26T20:56:34.869Z,0.60
2022-12-26T20:59:01.572Z,0.60
2022-12-26T21:01:28.605Z,0.57
2022-12-26T21:03:56.405Z,0.55
2022-12-26T21:06:27.527Z,0.50
2022-12-26T21:08:54.508Z,0.38
2022-12-26T21:11:29.203Z,0.55
2022-12-26T21:13:59.327Z,0.40
2022-12-26T21:16:38.291Z,0.50
2022-12-26T21:19:12.276Z,0.38
2022-12-26T21:21:44.183Z,0.40
2022-12-26T21:24:13.933Z,0.60
2022-12-26T21:26:42.061Z,0.43
2022-12-26T21:29:13.661Z,0.30
2022-12-26T21:31:40.377Z,0.40
2022-12-26T21:34:07.227Z,0.47
2022-12-26T21:36:36.653Z,0.50
2022-12-26T21:39:10.402Z,0.43
2022-12-26T21:41:37.838Z,0.60
2022-12-26T21:44:05.029Z,0.40
2022-12-26T21:46:31.692Z,0.30
2022-12-26T21:48:58.480Z,0.40
2022-12-26T21:51:26.034Z,0.45
2022-12-26T21:54:12.832Z,0.43
2022-12-26T21:56:39.452Z,0.30
2022-12-26T21:59:24.470Z,0.43
2022-12-26T22:01:51.162Z,0.40
2022-12-26T22:04:20.941Z,0.40
2022-12-26T22:06:50.068Z,0.40
2022-12-26T22:09:17.372Z,0.45
2022-12-26T22:12:03.737Z,0.65
2022-12-26T22:14:30.451Z,0.30
2022-12-26T22:16:57.781Z,0.52
2022-12-26T22:19:25.510Z,0.40
2022-12-26T22:21:53.281Z,0.50
2022-12-26T22:24:21.833Z,0.38
2022-12-26T22:26:48.876Z,0.45
2022-12-26T22:29:15.591Z,0.40
2022-12-26T22:31:42.235Z,0.30
2022-12-26T22:34:14.024Z,0.40
2022-12-26T22:36:41.940Z,0.40
2022-12-26T22:39:13.422Z,0.40
2022-12-26T22:41:40.241Z,0.50
2022-12-26T22:44:06.958Z,0.35
2022-12-26T22:46:33.813Z,0.47
2022-12-26T22:49:00.488Z,0.60
2022-12-26T22:51:27.817Z,0.43
2022-12-26T22:54:00.103Z,0.35
2022-12-26T22:56:27.640Z,0.50
2022-12-26T22:58:56.291Z,0.60
2022-12-26T23:01:23.466Z,0.55
2022-12-26T23:03:50.228Z,0.50
2022-12-26T23:06:18.603Z,0.45
2022-12-26T23:08:45.819Z,0.40
2022-12-26T23:11:12.734Z,0.43
2022-12-26T23:13:39.615Z,0.50
2022-12-26T23:16:14.159Z,0.70
2022-12-26T23:19:31.271Z,0.57
2022-12-26T23:22:00.100Z,0.70
2022-12-26T23:24:28.273Z,0.70
2022-12-26T23:27:21.201Z,0.63
2022-12-26T23:30:07.829Z,0.60
2022-12-26T23:32:35.212Z,0.43
2022-12-26T23:35:01.866Z,0.60
2022-12-26T23:37:28.500Z,0.70
2022-12-26T23:39:55.135Z,0.50
2022-12-26T23:42:21.755Z,0.68
2022-12-26T23:44:48.387Z,0.50
2022-12-26T23:47:14.985Z,0.50
2022-12-26T23:49:41.587Z,0.52
2022-12-26T23:52:08.215Z,0.75
2022-12-26T23:54:34.819Z,0.70
2022-12-26T23:57:01.433Z,0.52
2022-12-26T23:59:28.054Z,0.60
